Time;durP1;ratioP1;P1;durP2;ratioP2;P2;SDS_P1;SDS_P2;PMS_P1;PMS_P2;Temp;Humidity;BMP_temperature;BMP_pressure;BME280_temperature;BME280_humidity;BME280_pressure;Samples;Min_cycle;Max_cycle;Signal;HPM_P1;HPM_P2
2022/06/23 00:01:16;;;;;;;9.05;3.60;;;;;;;;;;4841305;29;20046;-73
2022/06/23 00:03:42;;;;;;;14.52;4.05;;;;;;;;;;4836220;29;20099;-74
2022/06/23 00:06:25;;;;;;;14.88;4.20;;;;;;;;;;4836426;29;20122;-74
2022/06/23 00:08:51;;;;;;;10.85;4.32;;;;;;;;;;4839559;29;20121;-74
2022/06/23 00:11:25;;;;;;;12.18;4.40;;;;;;;;;;4838403;29;20447;-73
2022/06/23 00:13:53;;;;;;;17.08;5.13;;;;;;;;;;4843392;29;20055;-76
2022/06/23 00:16:27;;;;;;;11.00;4.20;;;;;;;;;;4843126;29;20164;-75
2022/06/23 00:18:53;;;;;;;11.93;4.40;;;;;;;;;;4824849;29;20042;-75
2022/06/23 00:21:32;;;;;;;12.65;4.60;;;;;;;;;;4836892;29;20053;-72
2022/06/23 00:24:03;;;;;;;12.23;4.82;;;;;;;;;;4838068;29;20406;-75
2022/06/23 00:26:33;;;;;;;12.52;4.90;;;;;;;;;;4836462;29;20575;-72
2022/06/23 00:29:02;;;;;;;14.15;4.72;;;;;;;;;;4841036;29;20037;-74
2022/06/23 00:31:30;;;;;;;18.90;4.80;;;;;;;;;;4838840;29;20138;-75
2022/06/23 00:33:59;;;;;;;12.45;5.22;;;;;;;;;;4829522;29;20038;-75
2022/06/23 00:36:30;;;;;;;10.80;4.97;;;;;;;;;;4846647;29;20117;-75
2022/06/23 00:38:55;;;;;;;10.57;5.35;;;;;;;;;;4827896;29;20086;-75
2022/06/23 00:41:27;;;;;;;15.85;6.50;;;;;;;;;;4825422;29;20034;-75
2022/06/23 00:43:52;;;;;;;17.00;6.82;;;;;;;;;;4844673;29;20057;-74
2022/06/23 00:46:28;;;;;;;12.77;5.82;;;;;;;;;;4847024;29;20064;-74
2022/06/23 00:49:09;;;;;;;13.57;6.70;;;;;;;;;;4846483;29;20174;-75
2022/06/23 00:51:42;;;;;;;15.73;6.47;;;;;;;;;;4847198;29;20044;-74
2022/06/23 00:54:23;;;;;;;24.33;6.70;;;;;;;;;;4827284;29;20043;-74
2022/06/23 00:57:13;;;;;;;18.48;6.75;;;;;;;;;;4846246;29;20050;-74
2022/06/23 00:59:48;;;;;;;15.30;6.28;;;;;;;;;;4848369;29;20050;-75
2022/06/23 01:02:18;;;;;;;12.75;5.55;;;;;;;;;;4841003;29;20041;-76
2022/06/23 01:05:08;;;;;;;19.08;6.95;;;;;;;;;;4843602;29;20034;-79
2022/06/23 01:07:52;;;;;;;15.68;7.15;;;;;;;;;;4844774;29;20091;-79
2022/06/23 01:10:17;;;;;;;14.23;6.93;;;;;;;;;;4847083;29;20051;-81
2022/06/23 01:12:49;;;;;;;16.85;7.28;;;;;;;;;;4845217;29;20089;-79
2022/06/23 01:15:45;;;;;;;16.35;7.43;;;;;;;;;;4845167;29;20034;-81
2022/06/23 01:18:30;;;;;;;15.30;7.45;;;;;;;;;;4847738;29;20048;-76
2022/06/23 01:20:55;;;;;;;23.40;7.90;;;;;;;;;;4848158;29;20402;-80
2022/06/23 01:23:53;;;;;;;18.00;7.90;;;;;;;;;;4832672;29;20034;-80
2022/06/23 01:26:34;;;;;;;16.10;7.90;;;;;;;;;;4847769;29;20033;-80
2022/06/23 01:29:17;;;;;;;20.25;8.18;;;;;;;;;;4831779;29;20030;-76
2022/06/23 01:31:45;;;;;;;16.40;8.75;;;;;;;;;;4845221;29;20529;-81
2022/06/23 01:34:23;;;;;;;23.38;9.00;;;;;;;;;;4844040;29;20086;-82
2022/06/23 01:37:14;;;;;;;15.10;8.15;;;;;;;;;;4833240;29;20137;-81
2022/06/23 01:40:16;;;;;;;21.55;9.50;;;;;;;;;;4844610;29;20070;-81
2022/06/23 01:42:58;;;;;;;19.58;9.82;;;;;;;;;;4845098;29;20455;-79
2022/06/23 01:45:35;;;;;;;15.57;10.10;;;;;;;;;;4844112;29;20046;-80
2022/06/23 01:48:08;;;;;;;20.70;11.13;;;;;;;;;;4843859;29;20038;-81
2022/06/23 01:50:42;;;;;;;17.45;9.85;;;;;;;;;;4843866;29;20034;-81
2022/06/23 01:53:26;;;;;;;21.38;9.02;;;;;;;;;;4846422;29;20040;-81
2022/06/23 01:56:04;;;;;;;17.10;7.65;;;;;;;;;;4844496;29;20036;-81
2022/06/23 01:58:47;;;;;;;13.25;7.20;;;;;;;;;;4842057;29;20042;-80
2022/06/23 02:01:18;;;;;;;15.55;7.32;;;;;;;;;;4842548;29;20068;-80
2022/06/23 02:03:50;;;;;;;17.90;7.90;;;;;;;;;;4845366;29;20042;-80
2022/06/23 02:06:21;;;;;;;16.90;7.83;;;;;;;;;;4850924;29;20048;-80
2022/06/23 02:09:10;;;;;;;15.73;8.02;;;;;;;;;;4847984;29;20076;-81
2022/06/23 02:11:45;;;;;;;19.73;8.75;;;;;;;;;;4844858;29;20045;-80
2022/06/23 02:14:13;;;;;;;20.85;8.65;;;;;;;;;;4845895;29;20045;-82
2022/06/23 02:16:53;;;;;;;19.73;8.40;;;;;;;;;;4831135;29;20570;-78
2022/06/23 02:19:41;;;;;;;17.27;8.15;;;;;;;;;;4841761;29;20034;-80
2022/06/23 02:22:25;;;;;;;14.05;7.95;;;;;;;;;;4842179;29;20053;-79
2022/06/23 02:25:04;;;;;;;15.15;7.25;;;;;;;;;;4830637;29;20042;-79
2022/06/23 02:27:40;;;;;;;16.70;6.88;;;;;;;;;;4842417;29;20042;-77
2022/06/23 02:30:13;;;;;;;10.75;5.55;;;;;;;;;;4842302;29;20034;-80
2022/06/23 02:33:00;;;;;;;12.25;6.07;;;;;;;;;;4852129;29;20054;-82
2022/06/23 02:35:40;;;;;;;10.40;4.93;;;;;;;;;;4845166;29;20042;-80
2022/06/23 02:38:20;;;;;;;9.15;4.90;;;;;;;;;;4835807;29;20038;-80
2022/06/23 02:40:49;;;;;;;7.70;4.82;;;;;;;;;;4845709;29;20021;-81
2022/06/23 02:43:38;;;;;;;9.73;4.75;;;;;;;;;;4849471;29;21193;-82
2022/06/23 02:46:13;;;;;;;10.07;4.70;;;;;;;;;;4850391;29;20046;-79
2022/06/23 02:48:57;;;;;;;10.82;4.57;;;;;;;;;;4850296;29;20046;-82
2022/06/23 02:51:34;;;;;;;10.00;4.32;;;;;;;;;;4843054;29;20053;-71
2022/06/23 02:54:21;;;;;;;9.40;4.30;;;;;;;;;;4845570;29;20395;-74
2022/06/23 02:57:05;;;;;;;13.43;4.63;;;;;;;;;;4849464;29;20053;-75
2022/06/23 02:59:48;;;;;;;13.48;5.30;;;;;;;;;;4843985;29;20038;-75
2022/06/23 03:02:29;;;;;;;8.40;4.43;;;;;;;;;;4839220;29;20037;-75
2022/06/23 03:04:59;;;;;;;12.18;4.88;;;;;;;;;;4837811;29;20534;-75
2022/06/23 03:07:30;;;;;;;10.88;4.68;;;;;;;;;;4835687;29;20651;-75
2022/06/23 03:10:06;;;;;;;11.13;4.57;;;;;;;;;;4839851;29;20046;-75
2022/06/23 03:12:52;;;;;;;10.63;4.72;;;;;;;;;;4838826;29;20068;-74
2022/06/23 03:15:24;;;;;;;11.75;4.97;;;;;;;;;;4837016;29;20086;-74
2022/06/23 03:17:53;;;;;;;10.73;4.65;;;;;;;;;;4837082;29;20044;-74
2022/06/23 03:20:38;;;;;;;13.60;4.95;;;;;;;;;;4836977;29;20029;-75
2022/06/23 03:23:28;;;;;;;11.60;4.95;;;;;;;;;;4836441;29;20082;-75
2022/06/23 03:26:15;;;;;;;9.95;4.80;;;;;;;;;;4808837;29;20046;-75
2022/06/23 03:28:51;;;;;;;8.63;4.68;;;;;;;;;;4838550;29;20053;-75
2022/06/23 03:31:29;;;;;;;10.77;4.50;;;;;;;;;;4842910;29;20029;-75
2022/06/23 03:34:14;;;;;;;12.05;4.72;;;;;;;;;;4836183;29;20038;-74
2022/06/23 03:36:49;;;;;;;8.45;4.20;;;;;;;;;;4837547;29;20125;-73
2022/06/23 03:42:49;;;;;;;9.88;4.45;;;;;;;;;;4836496;29;20088;-76
2022/06/23 03:45:20;;;;;;;10.75;4.32;;;;;;;;;;4839069;29;20042;-75
2022/06/23 03:48:01;;;;;;;9.38;4.55;;;;;;;;;;4840694;29;20050;-75
2022/06/23 03:50:50;;;;;;;11.88;4.63;;;;;;;;;;4840091;29;20046;-75
2022/06/23 03:53:28;;;;;;;7.32;4.00;;;;;;;;;;4838227;29;20698;-75
2022/06/23 03:55:58;;;;;;;11.93;4.93;;;;;;;;;;4839892;29;20044;-75
2022/06/23 03:58:26;;;;;;;9.57;4.68;;;;;;;;;;4839530;29;20136;-76
2022/06/23 04:01:03;;;;;;;9.57;4.35;;;;;;;;;;4838356;29;20049;-75
2022/06/23 04:03:35;;;;;;;14.35;5.18;;;;;;;;;;4844106;29;20049;-75
2022/06/23 04:06:34;;;;;;;9.90;4.80;;;;;;;;;;4838068;29;20510;-75
2022/06/23 04:09:06;;;;;;;12.02;6.18;;;;;;;;;;4839541;29;20190;-75
2022/06/23 04:11:46;;;;;;;14.02;5.65;;;;;;;;;;4842774;29;20525;-75
2022/06/23 04:14:24;;;;;;;13.98;5.50;;;;;;;;;;4840112;29;20034;-75
2022/06/23 04:16:54;;;;;;;12.68;5.50;;;;;;;;;;4843025;29;20045;-75
2022/06/23 04:19:26;;;;;;;11.32;5.57;;;;;;;;;;4840824;29;20033;-75
2022/06/23 04:22:01;;;;;;;10.13;5.77;;;;;;;;;;4846345;29;20597;-75
2022/06/23 04:24:27;;;;;;;10.75;4.70;;;;;;;;;;4839756;29;20099;-76
2022/06/23 04:26:56;;;;;;;11.13;5.45;;;;;;;;;;4820718;29;20042;-75
2022/06/23 04:29:36;;;;;;;11.10;5.30;;;;;;;;;;4842719;29;20116;-75
2022/06/23 04:32:13;;;;;;;9.65;5.43;;;;;;;;;;4840383;29;20364;-75
2022/06/23 04:34:57;;;;;;;11.57;4.90;;;;;;;;;;4840238;29;20526;-75
2022/06/23 04:37:32;;;;;;;9.05;4.55;;;;;;;;;;4842074;29;20034;-75
2022/06/23 04:40:08;;;;;;;11.52;4.93;;;;;;;;;;4849149;29;20038;-75
2022/06/23 04:42:36;;;;;;;9.02;5.05;;;;;;;;;;4845619;29;20034;-75
2022/06/23 04:45:37;;;;;;;10.70;5.72;;;;;;;;;;4830595;29;20057;-74
2022/06/23 04:48:07;;;;;;;12.45;5.07;;;;;;;;;;4765581;29;20054;-74
2022/06/23 04:50:45;;;;;;;13.45;5.72;;;;;;;;;;4846753;29;20044;-74
2022/06/23 04:53:40;;;;;;;11.25;5.70;;;;;;;;;;4844568;29;20392;-75
2022/06/23 04:56:29;;;;;;;15.25;7.25;;;;;;;;;;4844841;29;20026;-76
2022/06/23 04:59:04;;;;;;;16.75;8.25;;;;;;;;;;4821742;29;20045;-75
2022/06/23 05:01:37;;;;;;;21.17;8.85;;;;;;;;;;4832637;29;20042;-76
2022/06/23 05:04:11;;;;;;;18.20;9.27;;;;;;;;;;4839711;29;20387;-75
2022/06/23 05:06:36;;;;;;;14.52;10.07;;;;;;;;;;4843150;29;20038;-75
2022/06/23 05:09:17;;;;;;;25.58;11.93;;;;;;;;;;4825831;29;20137;-74
2022/06/23 05:11:50;;;;;;;16.02;10.02;;;;;;;;;;4840561;29;20045;-74
2022/06/23 05:14:29;;;;;;;20.88;10.65;;;;;;;;;;4842456;29;20407;-75
2022/06/23 05:17:09;;;;;;;18.27;9.27;;;;;;;;;;4839484;29;20030;-74
2022/06/23 05:19:41;;;;;;;14.60;9.35;;;;;;;;;;4825965;29;20417;-74
2022/06/23 05:22:31;;;;;;;18.30;9.20;;;;;;;;;;4839207;29;20485;-75
2022/06/23 05:25:13;;;;;;;12.90;8.32;;;;;;;;;;4845644;29;20073;-75
2022/06/23 05:27:38;;;;;;;13.15;8.20;;;;;;;;;;4826067;29;20042;-75
2022/06/23 05:30:36;;;;;;;19.77;9.43;;;;;;;;;;4841640;29;20048;-76
2022/06/23 05:33:07;;;;;;;18.33;9.07;;;;;;;;;;4831144;29;20391;-74
2022/06/23 05:35:35;;;;;;;16.33;9.38;;;;;;;;;;4828133;29;20049;-75
2022/06/23 05:38:16;;;;;;;17.77;11.15;;;;;;;;;;4847841;29;20030;-75
2022/06/23 05:40:55;;;;;;;19.05;10.57;;;;;;;;;;4825335;29;20421;-75
2022/06/23 05:43:21;;;;;;;27.48;12.55;;;;;;;;;;4843572;29;20050;-76
2022/06/23 05:45:57;;;;;;;30.98;12.68;;;;;;;;;;4841775;29;20095;-76
2022/06/23 05:48:35;;;;;;;33.33;12.50;;;;;;;;;;4837129;29;20041;-76
2022/06/23 05:51:09;;;;;;;31.50;12.75;;;;;;;;;;4840234;29;20486;-76
2022/06/23 05:54:05;;;;;;;34.83;12.02;;;;;;;;;;4840615;29;20041;-76
2022/06/23 05:56:38;;;;;;;26.42;12.95;;;;;;;;;;4842756;29;20048;-75
2022/06/23 05:59:14;;;;;;;28.85;11.57;;;;;;;;;;4844454;29;20037;-75
2022/06/23 06:02:04;;;;;;;34.50;13.68;;;;;;;;;;4829092;29;20206;-75
2022/06/23 06:04:50;;;;;;;24.88;11.75;;;;;;;;;;4828335;29;20065;-75
2022/06/23 06:07:21;;;;;;;27.45;11.88;;;;;;;;;;4843740;29;20080;-75
2022/06/23 06:09:48;;;;;;;22.55;12.55;;;;;;;;;;4844406;29;20431;-75
2022/06/23 06:12:21;;;;;;;28.40;13.15;;;;;;;;;;4827888;29;20072;-75
2022/06/23 06:14:52;;;;;;;29.60;12.70;;;;;;;;;;4831102;29;20045;-73
2022/06/23 06:17:21;;;;;;;27.80;12.40;;;;;;;;;;4830266;29;20037;-75
2022/06/23 06:19:48;;;;;;;28.95;11.50;;;;;;;;;;4822313;29;20026;-76
2022/06/23 06:22:49;;;;;;;27.50;12.48;;;;;;;;;;4841886;29;20065;-76
2022/06/23 06:25:22;;;;;;;26.52;12.48;;;;;;;;;;4824908;29;20513;-74
2022/06/23 06:27:48;;;;;;;24.35;12.50;;;;;;;;;;4843331;29;20498;-74
2022/06/23 06:30:17;;;;;;;23.08;12.23;;;;;;;;;;4842601;29;20100;-74
2022/06/23 06:32:44;;;;;;;24.20;11.90;;;;;;;;;;4841122;29;20072;-74
2022/06/23 06:35:36;;;;;;;25.00;10.32;;;;;;;;;;4826991;29;20030;-74
2022/06/23 06:38:08;;;;;;;24.60;10.98;;;;;;;;;;4827988;29;20037;-74
2022/06/23 06:40:35;;;;;;;17.50;9.65;;;;;;;;;;4845994;29;20121;-74
2022/06/23 06:43:07;;;;;;;24.27;9.82;;;;;;;;;;4845763;29;20042;-75
2022/06/23 06:45:36;;;;;;;16.77;7.82;;;;;;;;;;4844214;29;20049;-74
2022/06/23 06:48:03;;;;;;;17.02;8.65;;;;;;;;;;4844873;29;20394;-75
2022/06/23 06:50:40;;;;;;;17.27;8.27;;;;;;;;;;4846630;29;20045;-75
2022/06/23 06:54:01;;;;;;;21.05;8.80;;;;;;;;;;4848253;29;20033;-75
2022/06/23 06:56:41;;;;;;;14.20;6.80;;;;;;;;;;4786973;29;20043;-75
2022/06/23 06:59:38;;;;;;;13.32;6.65;;;;;;;;;;4783794;29;20032;-75
2022/06/23 07:02:13;;;;;;;12.48;5.93;;;;;;;;;;4833475;29;20554;-74
2022/06/23 07:04:55;;;;;;;13.23;6.32;;;;;;;;;;4843236;29;20038;-75
2022/06/23 07:07:26;;;;;;;15.27;6.32;;;;;;;;;;4837218;29;20036;-74
2022/06/23 07:09:58;;;;;;;8.80;6.07;;;;;;;;;;4839796;29;20049;-74
2022/06/23 07:13:05;;;;;;;14.45;6.43;;;;;;;;;;4843176;29;20410;-75
2022/06/23 07:16:00;;;;;;;15.52;6.25;;;;;;;;;;4781951;29;20133;-74
2022/06/23 07:18:38;;;;;;;13.10;6.45;;;;;;;;;;4769029;29;20535;-75
2022/06/23 07:21:19;;;;;;;13.02;5.70;;;;;;;;;;4823488;29;20045;-75
2022/06/23 07:24:01;;;;;;;13.82;6.53;;;;;;;;;;4839150;29;20069;-73
2022/06/23 07:26:42;;;;;;;25.20;7.82;;;;;;;;;;4835576;29;20046;-75
2022/06/23 07:29:12;;;;;;;18.17;7.57;;;;;;;;;;4845698;29;20109;-74
2022/06/23 07:32:01;;;;;;;19.23;6.50;;;;;;;;;;4842323;29;20034;-75
2022/06/23 07:34:30;;;;;;;13.57;6.40;;;;;;;;;;4823779;29;20048;-75
2022/06/23 07:36:58;;;;;;;13.20;6.60;;;;;;;;;;4842887;29;20114;-74
2022/06/23 07:39:33;;;;;;;15.90;6.72;;;;;;;;;;4835963;29;20049;-74
2022/06/23 07:42:07;;;;;;;12.65;6.55;;;;;;;;;;4837435;29;20050;-74
2022/06/23 07:44:46;;;;;;;16.42;7.43;;;;;;;;;;4835473;29;20042;-75
2022/06/23 07:47:12;;;;;;;13.48;6.47;;;;;;;;;;4841300;29;20116;-75
2022/06/23 07:49:38;;;;;;;11.98;6.20;;;;;;;;;;4839574;29;20541;-74
2022/06/23 07:52:04;;;;;;;17.92;6.93;;;;;;;;;;4840276;29;20888;-75
2022/06/23 07:54:30;;;;;;;14.82;6.75;;;;;;;;;;4843504;29;20889;-73
2022/06/23 07:56:56;;;;;;;17.67;7.20;;;;;;;;;;4823817;29;20034;-74
2022/06/23 07:59:27;;;;;;;14.40;6.93;;;;;;;;;;4841472;29;20044;-74
2022/06/23 08:02:06;;;;;;;13.75;5.72;;;;;;;;;;4839838;29;20038;-73
2022/06/23 08:04:38;;;;;;;25.95;7.10;;;;;;;;;;4841069;29;20503;-75
2022/06/23 08:07:08;;;;;;;14.70;6.43;;;;;;;;;;4837701;29;20046;-76
2022/06/23 08:09:41;;;;;;;15.32;8.55;;;;;;;;;;4843595;29;20530;-74
2022/06/23 08:17:51;;;;;;;13.07;5.80;;;;;;;;;;4838038;29;20073;-74
2022/06/23 08:20:21;;;;;;;11.07;5.43;;;;;;;;;;4838609;29;20044;-75
2022/06/23 08:22:48;;;;;;;12.55;6.45;;;;;;;;;;4821839;29;20030;-75
2022/06/23 08:25:16;;;;;;;11.48;6.55;;;;;;;;;;4839642;29;20045;-73
2022/06/23 08:27:43;;;;;;;21.13;6.18;;;;;;;;;;4821253;29;20170;-74
2022/06/23 08:30:15;;;;;;;10.10;5.60;;;;;;;;;;4842640;29;20042;-74
2022/06/23 08:32:46;;;;;;;12.05;5.82;;;;;;;;;;4845986;29;20042;-74
2022/06/23 08:35:32;;;;;;;12.60;6.53;;;;;;;;;;4848109;29;20030;-73
2022/06/23 08:38:04;;;;;;;19.70;7.57;;;;;;;;;;4846158;29;20460;-73
2022/06/23 08:40:55;;;;;;;16.05;6.93;;;;;;;;;;4854723;29;20043;-74
2022/06/23 08:43:45;;;;;;;12.60;5.93;;;;;;;;;;4849409;29;20046;-74
2022/06/23 08:46:28;;;;;;;14.35;6.10;;;;;;;;;;4852270;29;20060;-75
2022/06/23 08:49:08;;;;;;;13.35;5.05;;;;;;;;;;4845699;29;20374;-74
2022/06/23 08:51:41;;;;;;;10.90;5.15;;;;;;;;;;4856061;29;20034;-74
2022/06/23 08:54:12;;;;;;;13.57;5.80;;;;;;;;;;4850939;29;20414;-74
2022/06/23 08:57:05;;;;;;;14.60;5.95;;;;;;;;;;4845142;29;20081;-74
2022/06/23 08:59:52;;;;;;;10.95;5.60;;;;;;;;;;4830411;29;20042;-74
2022/06/23 09:02:26;;;;;;;11.02;4.90;;;;;;;;;;4842621;29;20112;-74
2022/06/23 09:05:24;;;;;;;13.32;5.47;;;;;;;;;;4841771;29;20032;-73
2022/06/23 09:08:10;;;;;;;10.32;5.20;;;;;;;;;;4826264;29;20053;-73
2022/06/23 09:10:57;;;;;;;13.52;5.50;;;;;;;;;;4845429;29;20398;-73
2022/06/23 09:13:50;;;;;;;9.80;4.63;;;;;;;;;;4843045;29;20084;-72
2022/06/23 09:16:51;;;;;;;9.60;4.70;;;;;;;;;;4842349;29;20048;-73
2022/06/23 09:19:49;;;;;;;13.65;4.63;;;;;;;;;;4843579;29;20148;-75
2022/06/23 09:22:26;;;;;;;13.95;4.78;;;;;;;;;;4844722;29;20073;-73
2022/06/23 09:25:02;;;;;;;10.93;5.18;;;;;;;;;;4845160;29;20042;-74
2022/06/23 09:27:51;;;;;;;11.18;4.57;;;;;;;;;;4846529;29;20034;-74
2022/06/23 09:30:36;;;;;;;11.82;4.68;;;;;;;;;;4827871;29;20046;-75
2022/06/23 09:33:01;;;;;;;9.18;4.35;;;;;;;;;;4844420;29;20046;-74
2022/06/23 09:35:56;;;;;;;12.93;4.70;;;;;;;;;;4841331;29;20061;-75
2022/06/23 09:38:24;;;;;;;12.25;4.80;;;;;;;;;;4842239;29;20061;-75
2022/06/23 09:41:10;;;;;;;10.40;4.40;;;;;;;;;;4844768;29;20430;-75
2022/06/23 09:43:51;;;;;;;11.50;4.70;;;;;;;;;;4831300;29;20124;-73
2022/06/23 09:46:38;;;;;;;11.70;4.20;;;;;;;;;;4841919;29;20034;-72
2022/06/23 09:49:25;;;;;;;11.70;4.15;;;;;;;;;;4841176;29;20034;-75
2022/06/23 09:52:16;;;;;;;11.40;4.90;;;;;;;;;;4846676;29;20037;-75
2022/06/23 09:55:00;;;;;;;11.60;5.13;;;;;;;;;;4845541;29;20038;-73
2022/06/23 09:57:59;;;;;;;8.95;4.43;;;;;;;;;;4842851;29;20042;-75
2022/06/23 10:00:48;;;;;;;10.00;4.68;;;;;;;;;;4845002;29;20129;-74
2022/06/23 10:03:32;;;;;;;11.50;4.72;;;;;;;;;;4842563;29;21230;-73
2022/06/23 10:06:12;;;;;;;9.70;4.70;;;;;;;;;;4840599;29;20510;-72
2022/06/23 10:09:00;;;;;;;12.43;4.38;;;;;;;;;;4844943;29;20503;-74
2022/06/23 10:11:44;;;;;;;7.47;4.55;;;;;;;;;;4843086;29;20064;-72
2022/06/23 10:14:19;;;;;;;17.92;4.68;;;;;;;;;;4840337;29;20045;-75
2022/06/23 10:16:46;;;;;;;14.07;4.53;;;;;;;;;;4845563;29;20052;-75
2022/06/23 10:19:39;;;;;;;11.82;4.65;;;;;;;;;;4840313;29;20050;-75
2022/06/23 10:22:26;;;;;;;13.02;4.75;;;;;;;;;;4835613;29;20038;-73
2022/06/23 10:25:06;;;;;;;12.55;4.82;;;;;;;;;;4839781;29;20462;-72
2022/06/23 10:28:01;;;;;;;10.43;4.53;;;;;;;;;;4841571;29;20078;-73
2022/06/23 10:30:50;;;;;;;10.75;5.10;;;;;;;;;;4845862;29;20038;-74
2022/06/23 10:33:40;;;;;;;11.70;4.70;;;;;;;;;;4841916;29;20498;-73
2022/06/23 10:36:09;;;;;;;12.88;4.68;;;;;;;;;;4846493;29;20209;-74
2022/06/23 10:38:59;;;;;;;9.20;4.93;;;;;;;;;;4843981;29;20094;-74
2022/06/23 10:41:39;;;;;;;10.43;5.03;;;;;;;;;;4842094;29;20053;-72
2022/06/23 10:44:13;;;;;;;9.75;5.30;;;;;;;;;;4841185;29;20026;-73
2022/06/23 10:46:44;;;;;;;10.70;4.90;;;;;;;;;;4842354;29;20038;-73
2022/06/23 10:49:36;;;;;;;11.35;4.97;;;;;;;;;;4843144;29;20050;-74
2022/06/23 10:52:16;;;;;;;12.35;4.72;;;;;;;;;;4843772;29;20082;-71
2022/06/23 10:55:09;;;;;;;8.65;4.72;;;;;;;;;;4839844;29;20146;-75
2022/06/23 10:58:08;;;;;;;9.75;4.72;;;;;;;;;;4827349;29;20506;-75
2022/06/23 11:00:59;;;;;;;11.05;5.07;;;;;;;;;;4840158;29;20399;-74
2022/06/23 11:03:43;;;;;;;11.27;4.68;;;;;;;;;;4836814;29;20105;-75
2022/06/23 11:06:34;;;;;;;11.65;5.07;;;;;;;;;;4839668;29;20066;-75
2022/06/23 11:09:41;;;;;;;10.63;4.80;;;;;;;;;;4834086;29;20075;-74
2022/06/23 11:12:12;;;;;;;11.45;5.20;;;;;;;;;;4835267;29;20385;-75
2022/06/23 11:15:06;;;;;;;11.73;5.00;;;;;;;;;;4837464;29;20105;-72
2022/06/23 11:17:34;;;;;;;10.73;5.10;;;;;;;;;;4833537;29;20050;-72
2022/06/23 11:20:11;;;;;;;9.90;4.88;;;;;;;;;;4837028;29;20086;-73
2022/06/23 11:22:51;;;;;;;11.93;5.03;;;;;;;;;;4836088;29;20407;-71
2022/06/23 11:25:48;;;;;;;9.77;5.10;;;;;;;;;;4833650;29;20430;-72
2022/06/23 11:28:19;;;;;;;11.10;4.85;;;;;;;;;;4834539;29;20042;-73
2022/06/23 11:31:03;;;;;;;12.23;5.35;;;;;;;;;;4834442;29;20044;-73
2022/06/23 11:34:11;;;;;;;8.18;4.50;;;;;;;;;;4836635;29;20042;-74
2022/06/23 11:37:14;;;;;;;7.18;4.53;;;;;;;;;;4840060;29;20040;-73
2022/06/23 11:40:06;;;;;;;14.30;4.25;;;;;;;;;;4835245;29;20050;-73
2022/06/23 11:42:54;;;;;;;8.48;4.63;;;;;;;;;;4840581;29;20046;-74
2022/06/23 11:45:27;;;;;;;7.82;4.03;;;;;;;;;;4838823;29;20053;-72
2022/06/23 11:48:08;;;;;;;9.35;4.05;;;;;;;;;;4834769;29;20056;-72
2022/06/23 11:50:58;;;;;;;10.80;4.47;;;;;;;;;;4837257;29;20044;-71
2022/06/23 11:53:49;;;;;;;8.93;4.32;;;;;;;;;;4840084;29;20077;-74
2022/06/23 11:56:42;;;;;;;7.68;4.10;;;;;;;;;;4843958;29;20807;-73
2022/06/23 11:59:11;;;;;;;7.57;4.70;;;;;;;;;;4838025;29;20022;-73
2022/06/23 12:01:36;;;;;;;10.85;4.50;;;;;;;;;;4836803;29;20061;-73
2022/06/23 12:04:38;;;;;;;12.73;4.93;;;;;;;;;;4838464;29;20122;-73
2022/06/23 12:07:18;;;;;;;13.40;4.55;;;;;;;;;;4842220;29;20456;-74
2022/06/23 12:10:05;;;;;;;10.35;4.65;;;;;;;;;;4845247;29;20057;-75
2022/06/23 12:12:33;;;;;;;10.15;5.00;;;;;;;;;;4847016;29;20035;-73
2022/06/23 12:15:01;;;;;;;9.13;4.40;;;;;;;;;;4842880;29;20141;-75
2022/06/23 12:17:35;;;;;;;11.15;4.53;;;;;;;;;;4845185;29;20115;-75
2022/06/23 12:20:23;;;;;;;10.90;4.80;;;;;;;;;;4841707;29;20030;-73
2022/06/23 12:23:02;;;;;;;11.18;5.10;;;;;;;;;;4841915;29;20141;-75
2022/06/23 12:25:29;;;;;;;8.70;4.68;;;;;;;;;;4823473;29;20084;-74
2022/06/23 12:28:01;;;;;;;9.85;4.40;;;;;;;;;;4840735;29;20049;-75
2022/06/23 12:30:32;;;;;;;9.73;4.60;;;;;;;;;;4821961;29;20102;-74
2022/06/23 12:33:11;;;;;;;10.25;4.97;;;;;;;;;;4828558;29;20064;-73
2022/06/23 12:35:54;;;;;;;11.35;5.18;;;;;;;;;;4843022;29;20399;-73
2022/06/23 12:38:45;;;;;;;9.13;4.65;;;;;;;;;;4847412;29;20036;-72
2022/06/23 12:41:17;;;;;;;8.38;4.90;;;;;;;;;;4838590;29;20034;-73
2022/06/23 12:44:24;;;;;;;9.77;5.10;;;;;;;;;;4844966;29;20343;-73
2022/06/23 12:47:02;;;;;;;9.70;4.82;;;;;;;;;;4844760;29;20037;-73
2022/06/23 12:50:11;;;;;;;8.95;5.15;;;;;;;;;;4828824;29;20602;-73
2022/06/23 12:53:05;;;;;;;11.73;5.07;;;;;;;;;;4844524;29;20582;-74
2022/06/23 12:55:47;;;;;;;10.13;4.68;;;;;;;;;;4844143;29;20386;-73
2022/06/23 12:58:36;;;;;;;9.60;4.93;;;;;;;;;;4849880;29;20116;-74
2022/06/23 13:01:10;;;;;;;11.55;4.53;;;;;;;;;;4843692;29;20038;-74
2022/06/23 13:04:08;;;;;;;10.15;4.93;;;;;;;;;;4842870;29;20046;-74
2022/06/23 13:06:39;;;;;;;9.90;5.00;;;;;;;;;;4837653;29;20518;-73
2022/06/23 13:09:19;;;;;;;9.50;4.47;;;;;;;;;;4846640;29;20038;-73
2022/06/23 13:12:03;;;;;;;12.55;4.60;;;;;;;;;;4836630;29;20157;-80
2022/06/23 13:14:50;;;;;;;17.08;4.40;;;;;;;;;;4821400;29;20053;-71
2022/06/23 13:17:34;;;;;;;8.35;4.25;;;;;;;;;;4839439;29;20034;-71
2022/06/23 13:20:08;;;;;;;7.15;4.63;;;;;;;;;;4838128;29;20052;-72
2022/06/23 13:22:59;;;;;;;9.82;4.47;;;;;;;;;;4825166;29;20058;-71
2022/06/23 13:25:35;;;;;;;8.80;4.60;;;;;;;;;;4837764;29;20066;-72
2022/06/23 13:28:05;;;;;;;10.68;4.38;;;;;;;;;;4837041;29;20061;-72
2022/06/23 13:30:42;;;;;;;11.40;4.22;;;;;;;;;;4836226;29;20490;-72
2022/06/23 13:33:19;;;;;;;8.15;4.47;;;;;;;;;;4821082;29;20188;-70
2022/06/23 13:35:53;;;;;;;6.82;3.95;;;;;;;;;;4852035;29;20038;-71
2022/06/23 13:39:04;;;;;;;8.02;3.92;;;;;;;;;;4848698;29;20025;-71
2022/06/23 13:41:37;;;;;;;9.40;4.00;;;;;;;;;;4818496;29;20138;-70
2022/06/23 13:44:48;;;;;;;6.47;3.70;;;;;;;;;;4831208;29;20105;-69
2022/06/23 13:47:42;;;;;;;13.70;4.10;;;;;;;;;;4842482;29;20060;-70
2022/06/23 13:50:19;;;;;;;6.60;3.58;;;;;;;;;;4825478;29;20037;-71
2022/06/23 13:53:00;;;;;;;9.15;4.43;;;;;;;;;;4831764;29;20517;-70
2022/06/23 13:55:39;;;;;;;8.80;3.90;;;;;;;;;;4833164;29;20037;-72
2022/06/23 13:58:23;;;;;;;5.65;3.63;;;;;;;;;;4833174;29;20133;-70
2022/06/23 14:01:00;;;;;;;7.40;3.80;;;;;;;;;;4824194;29;20486;-71
2022/06/23 14:03:44;;;;;;;10.82;4.28;;;;;;;;;;4833297;29;20137;-71
2022/06/23 14:06:15;;;;;;;7.18;3.97;;;;;;;;;;4836419;29;20098;-70
2022/06/23 14:08:46;;;;;;;8.80;3.75;;;;;;;;;;4835899;29;20053;-70
2022/06/23 14:11:30;;;;;;;10.02;3.63;;;;;;;;;;4836648;29;20087;-71
2022/06/23 14:14:05;;;;;;;8.48;4.30;;;;;;;;;;4837660;29;20151;-71
2022/06/23 14:17:04;;;;;;;8.85;3.58;;;;;;;;;;4838208;29;20049;-71
2022/06/23 14:20:01;;;;;;;7.15;3.92;;;;;;;;;;4824302;29;20498;-70
2022/06/23 14:22:26;;;;;;;6.45;3.70;;;;;;;;;;4838890;29;20046;-70
2022/06/23 14:25:04;;;;;;;7.97;3.72;;;;;;;;;;4835983;29;20108;-70
2022/06/23 14:27:50;;;;;;;7.50;3.50;;;;;;;;;;4835966;29;20048;-72
2022/06/23 14:30:38;;;;;;;7.03;3.83;;;;;;;;;;4833125;29;20114;-72
2022/06/23 14:33:13;;;;;;;8.50;4.10;;;;;;;;;;4840471;29;20038;-72
2022/06/23 14:35:52;;;;;;;8.02;3.95;;;;;;;;;;4837058;29;20057;-70
2022/06/23 14:38:34;;;;;;;7.60;4.05;;;;;;;;;;4839656;29;20375;-71
2022/06/23 14:41:18;;;;;;;11.32;3.63;;;;;;;;;;4832476;29;20440;-71
2022/06/23 14:44:28;;;;;;;5.85;3.42;;;;;;;;;;4838271;29;20046;-72
2022/06/23 14:47:05;;;;;;;5.80;4.00;;;;;;;;;;4800367;29;20049;-72
2022/06/23 14:49:44;;;;;;;7.05;4.07;;;;;;;;;;4840717;29;20091;-72
2022/06/23 14:52:22;;;;;;;6.32;3.70;;;;;;;;;;4839962;29;20604;-72
2022/06/23 14:55:10;;;;;;;7.45;3.47;;;;;;;;;;4837983;29;20068;-72
2022/06/23 14:57:35;;;;;;;8.48;3.58;;;;;;;;;;4818627;29;20046;-74
2022/06/23 15:00:09;;;;;;;8.82;4.35;;;;;;;;;;4821594;29;20048;-71
2022/06/23 15:03:05;;;;;;;5.53;2.97;;;;;;;;;;4835567;29;20586;-71
2022/06/23 15:05:38;;;;;;;8.50;3.53;;;;;;;;;;4837099;29;20363;-71
2022/06/23 15:08:20;;;;;;;10.43;3.25;;;;;;;;;;4838583;29;20049;-72
2022/06/23 15:10:49;;;;;;;7.68;3.60;;;;;;;;;;4835857;29;20057;-72
2022/06/23 15:13:33;;;;;;;11.88;3.70;;;;;;;;;;4835057;29;20398;-72
2022/06/23 15:16:13;;;;;;;5.55;3.70;;;;;;;;;;4825375;29;20062;-72
2022/06/23 15:18:56;;;;;;;8.87;3.50;;;;;;;;;;4833634;29;20125;-70
2022/06/23 15:24:46;;;;;;;7.28;3.65;;;;;;;;;;4835518;29;20052;-71
2022/06/23 15:27:18;;;;;;;6.35;3.67;;;;;;;;;;4832484;29;20042;-72
2022/06/23 15:29:50;;;;;;;8.23;3.92;;;;;;;;;;4836731;29;20797;-72
2022/06/23 15:32:38;;;;;;;8.43;3.30;;;;;;;;;;4835912;29;20479;-71
2022/06/23 15:35:27;;;;;;;8.75;3.95;;;;;;;;;;4838142;29;20037;-72
2022/06/23 15:37:59;;;;;;;8.05;4.10;;;;;;;;;;4832733;29;20041;-72
2022/06/23 15:40:42;;;;;;;5.25;3.65;;;;;;;;;;4837010;29;20085;-71
2022/06/23 15:43:38;;;;;;;11.15;3.50;;;;;;;;;;4838255;29;20042;-71
2022/06/23 15:46:13;;;;;;;9.05;3.38;;;;;;;;;;4840218;29;20544;-70
2022/06/23 15:48:51;;;;;;;6.28;3.30;;;;;;;;;;4848371;29;20541;-68
2022/06/23 15:51:41;;;;;;;5.95;3.40;;;;;;;;;;4844920;29;20130;-69
2022/06/23 15:54:20;;;;;;;9.82;3.65;;;;;;;;;;4838742;29;20497;-68
2022/06/23 15:56:55;;;;;;;6.13;3.40;;;;;;;;;;4822893;29;20473;-69
2022/06/23 15:59:42;;;;;;;8.85;3.00;;;;;;;;;;4839309;29;20555;-68